sensor_id;sensor_type;location;lat;lon;timestamp;pressure;altitude;pressure_sealevel;temperature;humidity
61961;BME280;47923;42.506;24.192;2024-03-07T00:02:13;95186.88;;;5.36;81.96
61961;BME280;47923;42.506;24.192;2024-03-07T00:04:39;95349.78;;;6.42;82.01
61961;BME280;47923;42.506;24.192;2024-03-07T00:07:04;95427.91;;;6.98;81.78
61961;BME280;47923;42.506;24.192;2024-03-07T00:09:36;95373.16;;;6.53;81.24
61961;BME280;47923;42.506;24.192;2024-03-07T00:12:02;95333.56;;;6.38;81.34
61961;BME280;47923;42.506;24.192;2024-03-07T00:14:28;95350.81;;;6.49;81.45
61961;BME280;47923;42.506;24.192;2024-03-07T00:16:55;95326.63;;;6.25;81.13
61961;BME280;47923;42.506;24.192;2024-03-07T00:19:20;95163.78;;;5.31;81.59
61961;BME280;47923;42.506;24.192;2024-03-07T00:21:47;95403.06;;;6.88;81.96
61961;BME280;47923;42.506;24.192;2024-03-07T00:24:13;94770.09;;;2.73;81.83
61961;BME280;47923;42.506;24.192;2024-03-07T00:26:39;95334.03;;;6.52;82.31
61961;BME280;47923;42.506;24.192;2024-03-07T00:29:06;95223.25;;;5.70;81.78
61961;BME280;47923;42.506;24.192;2024-03-07T00:31:32;95233.13;;;5.90;82.17
61961;BME280;47923;42.506;24.192;2024-03-07T00:33:58;95413.25;;;7.07;81.77
61961;BME280;47923;42.506;24.192;2024-03-07T00:36:24;95245.44;;;5.91;82.69
61961;BME280;47923;42.506;24.192;2024-03-07T00:38:49;95235.88;;;5.69;83.40
61961;BME280;47923;42.506;24.192;2024-03-07T00:41:15;95258.72;;;5.88;84.02
61961;BME280;47923;42.506;24.192;2024-03-07T00:43:42;95304.25;;;6.21;85.03
61961;BME280;47923;42.506;24.192;2024-03-07T00:46:08;95322.59;;;6.31;83.36
61961;BME280;47923;42.506;24.192;2024-03-07T00:48:33;95238.47;;;5.78;84.17
61961;BME280;47923;42.506;24.192;2024-03-07T00:50:58;95334.09;;;6.31;84.71
61961;BME280;47923;42.506;24.192;2024-03-07T00:53:24;95319.13;;;6.30;85.25
61961;BME280;47923;42.506;24.192;2024-03-07T00:55:49;95177.28;;;5.35;86.45
61961;BME280;47923;42.506;24.192;2024-03-07T00:58:15;95259.00;;;5.74;85.79
61961;BME280;47923;42.506;24.192;2024-03-07T01:00:40;95304.81;;;6.14;85.66
61961;BME280;47923;42.506;24.192;2024-03-07T01:03:09;95217.13;;;5.69;85.97
61961;BME280;47923;42.506;24.192;2024-03-07T01:05:39;95277.66;;;6.03;85.98
61961;BME280;47923;42.506;24.192;2024-03-07T01:08:05;95204.59;;;5.61;85.84
61961;BME280;47923;42.506;24.192;2024-03-07T01:10:31;95099.31;;;5.03;86.29
61961;BME280;47923;42.506;24.192;2024-03-07T01:12:56;95377.00;;;6.89;86.32
61961;BME280;47923;42.506;24.192;2024-03-07T01:15:26;95097.31;;;5.00;85.47
61961;BME280;47923;42.506;24.192;2024-03-07T01:17:52;95301.25;;;6.22;85.83
61961;BME280;47923;42.506;24.192;2024-03-07T01:20:17;95274.53;;;6.14;85.41
61961;BME280;47923;42.506;24.192;2024-03-07T01:22:43;95202.69;;;5.62;85.83
61961;BME280;47923;42.506;24.192;2024-03-07T01:25:09;95395.34;;;6.87;86.46
61961;BME280;47923;42.506;24.192;2024-03-07T01:27:34;95202.25;;;5.60;86.81
61961;BME280;47923;42.506;24.192;2024-03-07T01:30:00;94832.25;;;2.94;86.11
61961;BME280;47923;42.506;24.192;2024-03-07T01:32:28;95164.66;;;5.35;85.22
61961;BME280;47923;42.506;24.192;2024-03-07T01:34:55;95307.19;;;6.28;84.33
61961;BME280;47923;42.506;24.192;2024-03-07T01:37:21;95268.69;;;5.99;84.29
61961;BME280;47923;42.506;24.192;2024-03-07T01:39:46;95235.72;;;5.53;83.86
61961;BME280;47923;42.506;24.192;2024-03-07T01:42:12;95105.75;;;4.90;83.87
61961;BME280;47923;42.506;24.192;2024-03-07T01:44:37;94999.25;;;4.17;83.60
61961;BME280;47923;42.506;24.192;2024-03-07T01:47:05;95062.59;;;4.58;83.33
61961;BME280;47923;42.506;24.192;2024-03-07T01:49:31;95079.59;;;4.75;83.93
61961;BME280;47923;42.506;24.192;2024-03-07T01:51:58;95396.34;;;6.70;83.48
61961;BME280;47923;42.506;24.192;2024-03-07T01:54:25;95241.44;;;5.64;82.48
61961;BME280;47923;42.506;24.192;2024-03-07T01:56:51;95111.06;;;4.78;82.49
61961;BME280;47923;42.506;24.192;2024-03-07T01:59:18;95231.56;;;5.44;82.79
61961;BME280;47923;42.506;24.192;2024-03-07T02:01:46;94911.63;;;3.27;82.47
61961;BME280;47923;42.506;24.192;2024-03-07T02:04:12;95171.28;;;5.05;82.81
61961;BME280;47923;42.506;24.192;2024-03-07T02:06:38;95129.66;;;4.74;83.41
61961;BME280;47923;42.506;24.192;2024-03-07T02:09:03;95195.03;;;5.06;83.49
61961;BME280;47923;42.506;24.192;2024-03-07T02:11:31;95213.38;;;5.16;84.40
61961;BME280;47923;42.506;24.192;2024-03-07T02:13:56;95381.97;;;6.29;85.31
61961;BME280;47923;42.506;24.192;2024-03-07T02:16:22;95177.38;;;4.93;84.93
61961;BME280;47923;42.506;24.192;2024-03-07T02:18:48;95031.06;;;3.89;85.31
61961;BME280;47923;42.506;24.192;2024-03-07T02:21:15;95173.72;;;4.77;85.98
61961;BME280;47923;42.506;24.192;2024-03-07T02:23:41;95239.97;;;5.21;86.81
61961;BME280;47923;42.506;24.192;2024-03-07T02:26:06;95211.44;;;5.05;86.57
61961;BME280;47923;42.506;24.192;2024-03-07T02:28:33;95262.97;;;5.22;86.80
61961;BME280;47923;42.506;24.192;2024-03-07T02:31:00;95216.41;;;4.94;85.83
61961;BME280;47923;42.506;24.192;2024-03-07T02:33:25;95056.84;;;3.64;86.60
61961;BME280;47923;42.506;24.192;2024-03-07T02:35:51;95242.94;;;5.08;87.60
61961;BME280;47923;42.506;24.192;2024-03-07T02:38:16;95278.13;;;5.18;88.05
61961;BME280;47923;42.506;24.192;2024-03-07T02:40:43;95262.38;;;4.96;87.92
61961;BME280;47923;42.506;24.192;2024-03-07T02:43:08;95321.66;;;5.48;87.57
61961;BME280;47923;42.506;24.192;2024-03-07T02:45:34;95076.50;;;3.89;87.63
61961;BME280;47923;42.506;24.192;2024-03-07T02:47:59;95072.47;;;3.83;88.95
61961;BME280;47923;42.506;24.192;2024-03-07T02:50:24;95244.31;;;4.93;88.81
61961;BME280;47923;42.506;24.192;2024-03-07T02:52:50;95222.47;;;4.82;89.58
61961;BME280;47923;42.506;24.192;2024-03-07T02:55:17;95128.53;;;3.92;89.68
61961;BME280;47923;42.506;24.192;2024-03-07T02:57:44;95204.25;;;4.34;90.96
61961;BME280;47923;42.506;24.192;2024-03-07T03:00:11;95359.25;;;5.40;91.14
61961;BME280;47923;42.506;24.192;2024-03-07T03:02:48;95382.00;;;5.54;92.02
61961;BME280;47923;42.506;24.192;2024-03-07T03:05:15;95225.88;;;4.50;92.11
61961;BME280;47923;42.506;24.192;2024-03-07T03:07:41;95387.69;;;5.53;92.50
61961;BME280;47923;42.506;24.192;2024-03-07T03:10:07;95172.59;;;4.15;92.74
61961;BME280;47923;42.506;24.192;2024-03-07T03:12:33;95308.66;;;4.96;92.94
61961;BME280;47923;42.506;24.192;2024-03-07T03:14:58;95313.25;;;4.96;93.07
61961;BME280;47923;42.506;24.192;2024-03-07T03:17:24;95397.47;;;5.49;93.87
61961;BME280;47923;42.506;24.192;2024-03-07T03:19:49;95114.72;;;3.60;93.36
61961;BME280;47923;42.506;24.192;2024-03-07T03:22:16;94796.34;;;1.48;92.94
61961;BME280;47923;42.506;24.192;2024-03-07T03:24:43;95412.72;;;5.36;93.67
61961;BME280;47923;42.506;24.192;2024-03-07T03:27:09;95253.47;;;4.33;94.34
61961;BME280;47923;42.506;24.192;2024-03-07T03:29:34;95314.19;;;4.70;94.52
61961;BME280;47923;42.506;24.192;2024-03-07T03:32:00;95222.81;;;4.01;95.06
61961;BME280;47923;42.506;24.192;2024-03-07T03:34:25;95166.38;;;3.64;94.94
61961;BME280;47923;42.506;24.192;2024-03-07T03:36:51;95229.63;;;3.90;95.49
61961;BME280;47923;42.506;24.192;2024-03-07T03:39:17;95061.44;;;2.87;96.05
61961;BME280;47923;42.506;24.192;2024-03-07T03:41:46;95242.19;;;3.89;96.14
61961;BME280;47923;42.506;24.192;2024-03-07T03:44:11;95352.66;;;4.57;96.52
61961;BME280;47923;42.506;24.192;2024-03-07T03:46:36;95280.28;;;4.24;97.04
61961;BME280;47923;42.506;24.192;2024-03-07T03:49:02;95387.19;;;4.80;96.98
61961;BME280;47923;42.506;24.192;2024-03-07T03:51:27;95268.88;;;4.06;97.13
61961;BME280;47923;42.506;24.192;2024-03-07T03:53:53;95422.09;;;5.21;96.96
61961;BME280;47923;42.506;24.192;2024-03-07T03:56:19;95436.72;;;5.24;97.27
61961;BME280;47923;42.506;24.192;2024-03-07T03:58:44;95284.22;;;4.27;97.21
61961;BME280;47923;42.506;24.192;2024-03-07T04:01:10;95235.84;;;4.02;97.29
61961;BME280;47923;42.506;24.192;2024-03-07T04:03:38;95313.81;;;4.51;97.84
61961;BME280;47923;42.506;24.192;2024-03-07T04:06:04;95289.50;;;4.35;97.72
61961;BME280;47923;42.506;24.192;2024-03-07T04:08:30;95316.50;;;4.51;98.09
61961;BME280;47923;42.506;24.192;2024-03-07T04:10:55;95430.72;;;5.27;97.94
61961;BME280;47923;42.506;24.192;2024-03-07T04:13:21;95243.63;;;3.86;98.05
61961;BME280;47923;42.506;24.192;2024-03-07T04:15:49;95134.94;;;3.23;97.90
61961;BME280;47923;42.506;24.192;2024-03-07T04:18:15;95291.47;;;4.18;97.90
61961;BME280;47923;42.506;24.192;2024-03-07T04:20:40;95453.72;;;5.28;98.61
61961;BME280;47923;42.506;24.192;2024-03-07T04:23:09;95453.91;;;5.23;98.23
61961;BME280;47923;42.506;24.192;2024-03-07T04:25:36;95451.03;;;5.28;98.11
61961;BME280;47923;42.506;24.192;2024-03-07T04:28:01;95228.00;;;3.68;97.91
61961;BME280;47923;42.506;24.192;2024-03-07T04:30:28;94939.75;;;1.92;97.88
61961;BME280;47923;42.506;24.192;2024-03-07T04:32:53;95259.31;;;3.97;98.27
61961;BME280;47923;42.506;24.192;2024-03-07T04:35:18;94992.97;;;2.27;97.84
61961;BME280;47923;42.506;24.192;2024-03-07T04:37:44;95276.56;;;4.08;98.14
61961;BME280;47923;42.506;24.192;2024-03-07T04:40:10;95347.44;;;4.61;97.34
61961;BME280;47923;42.506;24.192;2024-03-07T04:42:42;95343.47;;;4.37;97.11
61961;BME280;47923;42.506;24.192;2024-03-07T04:45:09;95342.91;;;4.53;96.53
61961;BME280;47923;42.506;24.192;2024-03-07T04:47:36;95205.53;;;3.51;95.39
61961;BME280;47923;42.506;24.192;2024-03-07T04:50:02;95299.19;;;4.10;94.88
61961;BME280;47923;42.506;24.192;2024-03-07T04:52:27;94979.84;;;2.13;94.24
61961;BME280;47923;42.506;24.192;2024-03-07T04:54:53;95284.78;;;3.94;94.67
61961;BME280;47923;42.506;24.192;2024-03-07T04:57:18;95449.91;;;5.08;95.08
61961;BME280;47923;42.506;24.192;2024-03-07T04:59:44;95448.28;;;5.16;95.49
61961;BME280;47923;42.506;24.192;2024-03-07T05:02:11;95049.41;;;2.46;94.64
61961;BME280;47923;42.506;24.192;2024-03-07T05:04:36;95233.81;;;3.61;94.60
61961;BME280;47923;42.506;24.192;2024-03-07T05:07:03;95064.47;;;2.51;93.03
61961;BME280;47923;42.506;24.192;2024-03-07T05:09:28;95022.47;;;2.05;92.78
61961;BME280;47923;42.506;24.192;2024-03-07T05:11:54;95292.72;;;3.82;92.74
61961;BME280;47923;42.506;24.192;2024-03-07T05:14:20;95239.19;;;3.44;92.84
61961;BME280;47923;42.506;24.192;2024-03-07T05:16:47;95411.91;;;4.38;93.01
61961;BME280;47923;42.506;24.192;2024-03-07T05:19:33;94809.31;;;0.71;92.94
61961;BME280;47923;42.506;24.192;2024-03-07T05:21:59;95315.13;;;3.98;92.84
61961;BME280;47923;42.506;24.192;2024-03-07T05:24:24;95211.28;;;3.15;92.33
61961;BME280;47923;42.506;24.192;2024-03-07T05:26:49;95292.53;;;3.78;92.71
61961;BME280;47923;42.506;24.192;2024-03-07T05:29:16;95278.63;;;3.47;91.81
61961;BME280;47923;42.506;24.192;2024-03-07T05:31:43;95303.28;;;3.61;91.46
61961;BME280;47923;42.506;24.192;2024-03-07T05:34:13;95348.00;;;3.81;91.34
61961;BME280;47923;42.506;24.192;2024-03-07T05:36:38;95523.41;;;4.72;90.14
61961;BME280;47923;42.506;24.192;2024-03-07T05:39:14;95340.97;;;3.59;88.80
61961;BME280;47923;42.506;24.192;2024-03-07T05:41:44;95338.94;;;3.56;88.66
61961;BME280;47923;42.506;24.192;2024-03-07T05:44:13;95457.41;;;4.30;88.59
61961;BME280;47923;42.506;24.192;2024-03-07T05:46:40;95203.44;;;2.49;87.79
61961;BME280;47923;42.506;24.192;2024-03-07T05:49:14;95343.19;;;3.23;89.07
61961;BME280;47923;42.506;24.192;2024-03-07T05:51:40;95334.06;;;3.15;89.82
61961;BME280;47923;42.506;24.192;2024-03-07T05:54:07;95253.31;;;2.40;89.98
61961;BME280;47923;42.506;24.192;2024-03-07T05:56:34;95214.59;;;2.43;90.19
61961;BME280;47923;42.506;24.192;2024-03-07T05:59:02;95347.13;;;3.25;90.56
61961;BME280;47923;42.506;24.192;2024-03-07T06:01:32;95512.75;;;4.38;90.87
61961;BME280;47923;42.506;24.192;2024-03-07T06:04:01;95487.56;;;4.48;90.02
61961;BME280;47923;42.506;24.192;2024-03-07T06:06:27;94934.81;;;0.91;89.78
61961;BME280;47923;42.506;24.192;2024-03-07T06:08:54;95371.09;;;4.03;90.03
61961;BME280;47923;42.506;24.192;2024-03-07T06:11:19;95487.97;;;4.76;89.08
61961;BME280;47923;42.506;24.192;2024-03-07T06:13:47;95260.75;;;3.04;87.91
61961;BME280;47923;42.506;24.192;2024-03-07T06:16:13;95431.13;;;4.23;87.79
61961;BME280;47923;42.506;24.192;2024-03-07T06:18:42;95424.34;;;4.34;86.97
61961;BME280;47923;42.506;24.192;2024-03-07T06:21:08;95507.13;;;4.95;87.81
61961;BME280;47923;42.506;24.192;2024-03-07T06:23:34;95505.69;;;4.97;87.95
61961;BME280;47923;42.506;24.192;2024-03-07T06:26:00;95304.22;;;3.48;88.48
61961;BME280;47923;42.506;24.192;2024-03-07T06:28:26;95268.91;;;3.33;87.80
61961;BME280;47923;42.506;24.192;2024-03-07T06:30:54;95408.31;;;4.34;88.18
61961;BME280;47923;42.506;24.192;2024-03-07T06:33:20;95290.69;;;3.70;89.00
61961;BME280;47923;42.506;24.192;2024-03-07T06:35:46;95261.50;;;3.48;88.24
61961;BME280;47923;42.506;24.192;2024-03-07T06:38:12;95215.63;;;3.46;87.55
61961;BME280;47923;42.506;24.192;2024-03-07T06:40:38;95490.91;;;5.30;87.16
61961;BME280;47923;42.506;24.192;2024-03-07T06:43:10;95362.06;;;4.34;87.09
61961;BME280;47923;42.506;24.192;2024-03-07T06:45:37;95368.28;;;4.47;87.06
61961;BME280;47923;42.506;24.192;2024-03-07T06:48:06;95477.00;;;4.98;86.63
61961;BME280;47923;42.506;24.192;2024-03-07T06:50:35;95088.31;;;2.56;87.36
61961;BME280;47923;42.506;24.192;2024-03-07T06:53:02;95160.59;;;2.98;87.48
61961;BME280;47923;42.506;24.192;2024-03-07T06:55:28;95294.75;;;3.76;88.04
61961;BME280;47923;42.506;24.192;2024-03-07T06:57:53;95326.09;;;4.14;88.16
61961;BME280;47923;42.506;24.192;2024-03-07T07:00:21;95325.13;;;4.19;88.45
61961;BME280;47923;42.506;24.192;2024-03-07T07:02:48;95097.84;;;2.83;87.66
61961;BME280;47923;42.506;24.192;2024-03-07T07:05:14;95379.88;;;4.59;86.83
61961;BME280;47923;42.506;24.192;2024-03-07T07:07:50;95297.88;;;3.78;86.08
61961;BME280;47923;42.506;24.192;2024-03-07T07:10:16;95321.88;;;3.96;86.49
61961;BME280;47923;42.506;24.192;2024-03-07T07:12:44;95533.63;;;5.26;86.74
61961;BME280;47923;42.506;24.192;2024-03-07T07:15:11;95383.66;;;4.58;86.25
61961;BME280;47923;42.506;24.192;2024-03-07T07:17:37;95354.78;;;4.43;86.58
61961;BME280;47923;42.506;24.192;2024-03-07T07:20:04;95258.94;;;3.69;85.43
61961;BME280;47923;42.506;24.192;2024-03-07T07:22:38;95276.47;;;3.87;86.32
61961;BME280;47923;42.506;24.192;2024-03-07T07:25:04;95509.28;;;5.40;86.05
61961;BME280;47923;42.506;24.192;2024-03-07T07:27:32;95296.88;;;4.00;85.41
61961;BME280;47923;42.506;24.192;2024-03-07T07:29:57;95514.97;;;5.38;85.66
61961;BME280;47923;42.506;24.192;2024-03-07T07:32:23;95403.81;;;4.94;84.93
61961;BME280;47923;42.506;24.192;2024-03-07T07:34:49;95446.22;;;5.13;85.00
61961;BME280;47923;42.506;24.192;2024-03-07T07:37:14;95441.81;;;5.17;83.89
61961;BME280;47923;42.506;24.192;2024-03-07T07:39:40;95377.63;;;4.70;82.91
61961;BME280;47923;42.506;24.192;2024-03-07T07:42:05;95225.75;;;3.78;84.02
61961;BME280;47923;42.506;24.192;2024-03-07T07:44:31;95234.41;;;3.75;83.20
61961;BME280;47923;42.506;24.192;2024-03-07T07:46:56;95447.22;;;5.08;83.53
61961;BME280;47923;42.506;24.192;2024-03-07T07:49:22;95336.34;;;4.50;83.34
61961;BME280;47923;42.506;24.192;2024-03-07T07:51:47;94983.41;;;2.35;82.86
61961;BME280;47923;42.506;24.192;2024-03-07T07:54:14;95519.16;;;5.77;82.75
61961;BME280;47923;42.506;24.192;2024-03-07T07:56:40;95472.22;;;5.42;82.98
61961;BME280;47923;42.506;24.192;2024-03-07T07:59:05;95550.47;;;5.86;83.04
61961;BME280;47923;42.506;24.192;2024-03-07T08:01:35;95525.53;;;5.94;83.32
61961;BME280;47923;42.506;24.192;2024-03-07T08:04:00;95379.13;;;4.88;82.29
61961;BME280;47923;42.506;24.192;2024-03-07T08:06:27;95378.38;;;5.09;82.61
61961;BME280;47923;42.506;24.192;2024-03-07T08:08:52;95351.50;;;4.67;82.48
61961;BME280;47923;42.506;24.192;2024-03-07T08:11:17;95402.47;;;5.09;83.15
61961;BME280;47923;42.506;24.192;2024-03-07T08:13:43;95443.53;;;5.21;83.23
61961;BME280;47923;42.506;24.192;2024-03-07T08:16:10;95365.63;;;4.76;84.14
61961;BME280;47923;42.506;24.192;2024-03-07T08:18:36;95350.31;;;4.56;84.48
61961;BME280;47923;42.506;24.192;2024-03-07T08:21:02;95358.50;;;4.12;84.89
61961;BME280;47923;42.506;24.192;2024-03-07T08:23:27;95390.34;;;4.43;85.13
61961;BME280;47923;42.506;24.192;2024-03-07T08:25:54;95470.13;;;4.88;86.67
61961;BME280;47923;42.506;24.192;2024-03-07T08:28:20;95483.34;;;4.93;86.92
61961;BME280;47923;42.506;24.192;2024-03-07T08:30:45;95477.06;;;4.89;88.29
61961;BME280;47923;42.506;24.192;2024-03-07T08:33:11;95382.97;;;4.32;88.08
61961;BME280;47923;42.506;24.192;2024-03-07T08:35:37;95337.94;;;4.04;89.14
61961;BME280;47923;42.506;24.192;2024-03-07T08:38:03;95461.69;;;4.78;88.32
61961;BME280;47923;42.506;24.192;2024-03-07T08:40:30;95556.78;;;5.60;88.23
61961;BME280;47923;42.506;24.192;2024-03-07T08:42:59;95557.56;;;5.61;88.52
61961;BME280;47923;42.506;24.192;2024-03-07T08:45:26;95045.38;;;2.14;88.42
61961;BME280;47923;42.506;24.192;2024-03-07T08:47:53;95052.91;;;2.21;89.31
61961;BME280;47923;42.506;24.192;2024-03-07T08:50:23;95240.13;;;3.48;89.18
61961;BME280;47923;42.506;24.192;2024-03-07T08:52:49;95156.31;;;3.14;89.12
61961;BME280;47923;42.506;24.192;2024-03-07T08:55:18;95555.38;;;5.83;89.50
61961;BME280;47923;42.506;24.192;2024-03-07T08:57:44;95492.09;;;5.41;89.14
61961;BME280;47923;42.506;24.192;2024-03-07T09:00:12;95492.25;;;5.65;89.21
61961;BME280;47923;42.506;24.192;2024-03-07T09:02:51;95372.69;;;4.51;89.03
61961;BME280;47923;42.506;24.192;2024-03-07T09:05:17;95334.44;;;4.12;90.14
61961;BME280;47923;42.506;24.192;2024-03-07T09:07:43;95429.78;;;4.64;89.71
61961;BME280;47923;42.506;24.192;2024-03-07T09:10:10;95508.41;;;5.27;89.23
61961;BME280;47923;42.506;24.192;2024-03-07T09:12:36;95512.56;;;5.45;88.77
61961;BME280;47923;42.506;24.192;2024-03-07T09:15:03;95466.53;;;5.22;88.00
61961;BME280;47923;42.506;24.192;2024-03-07T09:17:28;95471.09;;;5.51;87.34
61961;BME280;47923;42.506;24.192;2024-03-07T09:19:55;95408.94;;;5.08;86.89
61961;BME280;47923;42.506;24.192;2024-03-07T09:22:20;95403.75;;;5.32;86.45
61961;BME280;47923;42.506;24.192;2024-03-07T09:24:46;95579.19;;;6.56;85.11
61961;BME280;47923;42.506;24.192;2024-03-07T09:27:11;95332.13;;;5.20;84.22
61961;BME280;47923;42.506;24.192;2024-03-07T09:29:39;95595.81;;;6.71;83.31
61961;BME280;47923;42.506;24.192;2024-03-07T09:32:05;95377.50;;;5.46;81.36
61961;BME280;47923;42.506;24.192;2024-03-07T09:34:33;95404.63;;;5.45;82.11
61961;BME280;47923;42.506;24.192;2024-03-07T09:37:01;95459.91;;;5.70;81.75
61961;BME280;47923;42.506;24.192;2024-03-07T09:39:26;95085.91;;;3.66;82.54
61961;BME280;47923;42.506;24.192;2024-03-07T09:41:52;95481.09;;;6.47;82.70
61961;BME280;47923;42.506;24.192;2024-03-07T09:44:20;95260.03;;;5.15;82.55
61961;BME280;47923;42.506;24.192;2024-03-07T09:46:59;95474.22;;;6.70;80.93
61961;BME280;47923;42.506;24.192;2024-03-07T09:49:28;95557.78;;;7.26;80.80
61961;BME280;47923;42.506;24.192;2024-03-07T09:51:55;95360.13;;;5.86;80.04
61961;BME280;47923;42.506;24.192;2024-03-07T09:54:22;95538.75;;;7.07;80.68
61961;BME280;47923;42.506;24.192;2024-03-07T09:56:54;95260.16;;;4.98;80.34
61961;BME280;47923;42.506;24.192;2024-03-07T09:59:24;95320.94;;;5.60;79.98
61961;BME280;47923;42.506;24.192;2024-03-07T10:01:55;95553.69;;;6.96;78.92
61961;BME280;47923;42.506;24.192;2024-03-07T10:04:37;95443.09;;;6.24;79.12
61961;BME280;47923;42.506;24.192;2024-03-07T10:07:07;95556.03;;;6.85;79.77
61961;BME280;47923;42.506;24.192;2024-03-07T10:09:37;95309.84;;;5.28;80.35
61961;BME280;47923;42.506;24.192;2024-03-07T10:12:03;95487.72;;;6.61;80.35
61961;BME280;47923;42.506;24.192;2024-03-07T10:14:32;95189.84;;;4.68;80.43
61961;BME280;47923;42.506;24.192;2024-03-07T10:16:58;95402.91;;;6.03;80.58
61961;BME280;47923;42.506;24.192;2024-03-07T10:19:23;95548.63;;;6.82;80.39
61961;BME280;47923;42.506;24.192;2024-03-07T10:21:49;95177.03;;;4.32;81.61
61961;BME280;47923;42.506;24.192;2024-03-07T10:24:17;95474.72;;;6.18;82.62
61961;BME280;47923;42.506;24.192;2024-03-07T10:26:43;95255.50;;;4.65;81.84
61961;BME280;47923;42.506;24.192;2024-03-07T10:29:08;95487.28;;;6.26;82.33
61961;BME280;47923;42.506;24.192;2024-03-07T10:31:34;95288.19;;;5.01;82.78
61961;BME280;47923;42.506;24.192;2024-03-07T10:34:03;95556.25;;;6.59;84.35
61961;BME280;47923;42.506;24.192;2024-03-07T10:36:29;95374.88;;;5.38;84.01
61961;BME280;47923;42.506;24.192;2024-03-07T10:38:59;95353.31;;;5.34;84.16
61961;BME280;47923;42.506;24.192;2024-03-07T10:41:46;95512.53;;;6.04;83.85
61961;BME280;47923;42.506;24.192;2024-03-07T10:44:32;95466.13;;;5.62;86.28
61961;BME280;47923;42.506;24.192;2024-03-07T10:47:04;95356.88;;;4.96;87.33
61961;BME280;47923;42.506;24.192;2024-03-07T10:49:34;95561.88;;;6.12;88.30
61961;BME280;47923;42.506;24.192;2024-03-07T10:55:00;95387.66;;;4.82;89.57
61961;BME280;47923;42.506;24.192;2024-03-07T10:57:45;95349.38;;;4.13;89.36
61961;BME280;47923;42.506;24.192;2024-03-07T11:00:14;95394.53;;;4.53;90.89
61961;BME280;47923;42.506;24.192;2024-03-07T11:02:56;95351.84;;;4.19;91.17
61961;BME280;47923;42.506;24.192;2024-03-07T11:05:25;95376.88;;;4.23;91.88
61961;BME280;47923;42.506;24.192;2024-03-07T11:07:51;95086.75;;;2.46;93.35
61961;BME280;47923;42.506;24.192;2024-03-07T11:10:18;95553.56;;;5.46;94.22
61961;BME280;47923;42.506;24.192;2024-03-07T11:12:46;95330.84;;;4.00;94.29
61961;BME280;47923;42.506;24.192;2024-03-07T11:15:16;95375.28;;;4.30;94.37
61961;BME280;47923;42.506;24.192;2024-03-07T11:17:47;95419.03;;;4.72;94.15
61961;BME280;47923;42.506;24.192;2024-03-07T11:22:46;95476.47;;;5.22;94.05
61961;BME280;47923;42.506;24.192;2024-03-07T11:25:12;95461.09;;;5.02;93.68
61961;BME280;47923;42.506;24.192;2024-03-07T11:27:38;95519.94;;;5.48;93.17
61961;BME280;47923;42.506;24.192;2024-03-07T11:30:07;95443.19;;;4.93;93.09
61961;BME280;47923;42.506;24.192;2024-03-07T11:32:40;95277.28;;;3.79;92.97
61961;BME280;47923;42.506;24.192;2024-03-07T11:35:13;95430.47;;;4.82;93.43
61961;BME280;47923;42.506;24.192;2024-03-07T11:37:44;95428.22;;;4.54;92.91
61961;BME280;47923;42.506;24.192;2024-03-07T11:40:42;95538.03;;;5.31;93.61
61961;BME280;47923;42.506;24.192;2024-03-07T11:43:00;95353.78;;;4.09;93.48
61961;BME280;47923;42.506;24.192;2024-03-07T11:45:30;95369.28;;;4.33;94.32
61961;BME280;47923;42.506;24.192;2024-03-07T11:48:04;95330.38;;;3.98;95.03
61961;BME280;47923;42.506;24.192;2024-03-07T11:50:34;95380.75;;;4.42;94.81
61961;BME280;47923;42.506;24.192;2024-03-07T11:53:03;95527.53;;;5.46;94.33
61961;BME280;47923;42.506;24.192;2024-03-07T11:55:35;95391.88;;;4.53;94.02
61961;BME280;47923;42.506;24.192;2024-03-07T12:00:39;95452.25;;;5.10;93.72
61961;BME280;47923;42.506;24.192;2024-03-07T12:03:08;95190.81;;;3.45;93.58
61961;BME280;47923;42.506;24.192;2024-03-07T12:05:38;95336.09;;;4.26;91.24
61961;BME280;47923;42.506;24.192;2024-03-07T12:08:04;95335.47;;;4.29;93.10
61961;BME280;47923;42.506;24.192;2024-03-07T12:10:31;95350.81;;;4.49;93.12
61961;BME280;47923;42.506;24.192;2024-03-07T12:12:56;95037.63;;;2.65;92.93
61961;BME280;47923;42.506;24.192;2024-03-07T12:15:23;95035.88;;;2.69;92.82
61961;BME280;47923;42.506;24.192;2024-03-07T12:17:49;95432.38;;;5.40;92.27
61961;BME280;47923;42.506;24.192;2024-03-07T12:20:18;94783.22;;;0.99;90.84
61961;BME280;47923;42.506;24.192;2024-03-07T12:22:50;95225.69;;;3.87;90.39
61961;BME280;47923;42.506;24.192;2024-03-07T12:25:18;95330.00;;;4.55;90.70
61961;BME280;47923;42.506;24.192;2024-03-07T12:28:09;95329.03;;;4.89;91.22
61961;BME280;47923;42.506;24.192;2024-03-07T12:30:56;95391.47;;;5.31;91.42
61961;BME280;47923;42.506;24.192;2024-03-07T12:33:22;95478.38;;;6.14;91.48
61961;BME280;47923;42.506;24.192;2024-03-07T12:35:51;95484.31;;;5.77;90.65
61961;BME280;47923;42.506;24.192;2024-03-07T12:38:19;95477.22;;;5.52;90.60
61961;BME280;47923;42.506;24.192;2024-03-07T12:40:45;95486.38;;;5.72;91.32
61961;BME280;47923;42.506;24.192;2024-03-07T12:43:21;95384.13;;;5.19;90.97
61961;BME280;47923;42.506;24.192;2024-03-07T12:45:51;95490.44;;;5.78;91.55
61961;BME280;47923;42.506;24.192;2024-03-07T12:48:20;95256.91;;;4.42;91.73
61961;BME280;47923;42.506;24.192;2024-03-07T12:50:52;95337.72;;;5.07;92.09
61961;BME280;47923;42.506;24.192;2024-03-07T12:53:24;95382.47;;;5.06;91.58
61961;BME280;47923;42.506;24.192;2024-03-07T12:55:51;95494.81;;;5.62;91.76
61961;BME280;47923;42.506;24.192;2024-03-07T12:58:20;95404.16;;;5.13;92.36
61961;BME280;47923;42.506;24.192;2024-03-07T13:00:47;95137.84;;;3.47;92.77
61961;BME280;47923;42.506;24.192;2024-03-07T13:03:15;94990.31;;;2.36;92.46
61961;BME280;47923;42.506;24.192;2024-03-07T13:05:40;95276.16;;;3.97;92.36
61961;BME280;47923;42.506;24.192;2024-03-07T13:08:08;94971.38;;;2.11;91.57
61961;BME280;47923;42.506;24.192;2024-03-07T13:10:44;95087.22;;;3.21;92.32